sensor_id;sensor_type;location;lat;lon;timestamp;temperature;humidity
3001;DHT22;1510;51.072;6.678;2023-09-18T00:01:14;17.70;99.90
3001;DHT22;1510;51.072;6.678;2023-09-18T00:03:41;17.70;99.90
3001;DHT22;1510;51.072;6.678;2023-09-18T00:06:08;17.70;99.90
3001;DHT22;1510;51.072;6.678;2023-09-18T00:08:39;17.70;99.90
3001;DHT22;1510;51.072;6.678;2023-09-18T00:11:07;17.60;99.90
3001;DHT22;1510;51.072;6.678;2023-09-18T00:13:35;17.60;99.90
3001;DHT22;1510;51.072;6.678;2023-09-18T00:16:02;17.60;99.90
3001;DHT22;1510;51.072;6.678;2023-09-18T00:18:29;17.50;99.90
3001;DHT22;1510;51.072;6.678;2023-09-18T00:20:56;17.50;99.90
3001;DHT22;1510;51.072;6.678;2023-09-18T00:23:23;17.40;99.90
3001;DHT22;1510;51.072;6.678;2023-09-18T00:25:50;17.40;99.90
3001;DHT22;1510;51.072;6.678;2023-09-18T00:28:18;17.40;99.90
3001;DHT22;1510;51.072;6.678;2023-09-18T00:30:49;17.30;99.90
3001;DHT22;1510;51.072;6.678;2023-09-18T00:33:16;17.30;99.90
3001;DHT22;1510;51.072;6.678;2023-09-18T00:35:46;17.30;99.90
3001;DHT22;1510;51.072;6.678;2023-09-18T00:38:13;17.20;99.90
3001;DHT22;1510;51.072;6.678;2023-09-18T00:40:40;17.10;99.90
3001;DHT22;1510;51.072;6.678;2023-09-18T00:43:07;17.10;99.90
3001;DHT22;1510;51.072;6.678;2023-09-18T00:45:40;17.10;99.90
3001;DHT22;1510;51.072;6.678;2023-09-18T00:48:07;17.10;99.90
3001;DHT22;1510;51.072;6.678;2023-09-18T00:50:34;17.00;99.90
3001;DHT22;1510;51.072;6.678;2023-09-18T00:53:01;17.00;99.90
3001;DHT22;1510;51.072;6.678;2023-09-18T00:55:30;17.00;99.90
3001;DHT22;1510;51.072;6.678;2023-09-18T00:57:57;17.00;99.90
3001;DHT22;1510;51.072;6.678;2023-09-18T01:00:24;17.10;99.90
3001;DHT22;1510;51.072;6.678;2023-09-18T01:02:53;17.00;99.90
3001;DHT22;1510;51.072;6.678;2023-09-18T01:05:20;17.00;99.90
3001;DHT22;1510;51.072;6.678;2023-09-18T01:07:47;16.90;99.90
3001;DHT22;1510;51.072;6.678;2023-09-18T01:10:14;16.90;99.90
3001;DHT22;1510;51.072;6.678;2023-09-18T01:12:46;16.90;99.90
3001;DHT22;1510;51.072;6.678;2023-09-18T01:15:17;17.00;99.90
3001;DHT22;1510;51.072;6.678;2023-09-18T01:17:46;17.00;99.90
3001;DHT22;1510;51.072;6.678;2023-09-18T01:20:14;17.10;99.90
3001;DHT22;1510;51.072;6.678;2023-09-18T01:22:43;17.20;99.90
3001;DHT22;1510;51.072;6.678;2023-09-18T01:25:10;17.20;99.90
3001;DHT22;1510;51.072;6.678;2023-09-18T01:27:36;17.30;99.90
3001;DHT22;1510;51.072;6.678;2023-09-18T01:30:04;17.30;99.90
3001;DHT22;1510;51.072;6.678;2023-09-18T01:32:32;17.40;99.90
3001;DHT22;1510;51.072;6.678;2023-09-18T01:35:02;17.40;99.90
3001;DHT22;1510;51.072;6.678;2023-09-18T01:37:31;17.50;99.90
3001;DHT22;1510;51.072;6.678;2023-09-18T01:40:02;17.50;99.90
3001;DHT22;1510;51.072;6.678;2023-09-18T01:42:32;17.50;99.90
3001;DHT22;1510;51.072;6.678;2023-09-18T01:44:59;17.60;99.90
3001;DHT22;1510;51.072;6.678;2023-09-18T01:47:26;17.50;99.90
3001;DHT22;1510;51.072;6.678;2023-09-18T01:49:53;17.60;99.90
3001;DHT22;1510;51.072;6.678;2023-09-18T01:52:20;17.70;99.90
3001;DHT22;1510;51.072;6.678;2023-09-18T01:54:47;17.80;99.90
3001;DHT22;1510;51.072;6.678;2023-09-18T01:57:15;17.90;99.90
3001;DHT22;1510;51.072;6.678;2023-09-18T01:59:42;18.00;99.90
3001;DHT22;1510;51.072;6.678;2023-09-18T02:02:10;18.10;99.90
3001;DHT22;1510;51.072;6.678;2023-09-18T02:04:37;18.20;99.90
3001;DHT22;1510;51.072;6.678;2023-09-18T02:07:05;18.20;99.90
3001;DHT22;1510;51.072;6.678;2023-09-18T02:09:32;18.30;99.90
3001;DHT22;1510;51.072;6.678;2023-09-18T02:11:59;18.30;99.90
3001;DHT22;1510;51.072;6.678;2023-09-18T02:14:27;18.30;99.90
3001;DHT22;1510;51.072;6.678;2023-09-18T02:16:56;18.20;99.90
3001;DHT22;1510;51.072;6.678;2023-09-18T02:19:23;18.20;99.90
3001;DHT22;1510;51.072;6.678;2023-09-18T02:21:49;18.20;99.90
3001;DHT22;1510;51.072;6.678;2023-09-18T02:24:16;18.20;99.90
3001;DHT22;1510;51.072;6.678;2023-09-18T02:26:43;18.30;99.90
3001;DHT22;1510;51.072;6.678;2023-09-18T02:29:10;18.50;99.90
3001;DHT22;1510;51.072;6.678;2023-09-18T02:31:40;18.60;99.90
3001;DHT22;1510;51.072;6.678;2023-09-18T02:34:07;18.70;99.90
3001;DHT22;1510;51.072;6.678;2023-09-18T02:36:34;18.80;99.90
3001;DHT22;1510;51.072;6.678;2023-09-18T02:39:01;18.80;99.90
3001;DHT22;1510;51.072;6.678;2023-09-18T02:41:28;18.80;99.90
3001;DHT22;1510;51.072;6.678;2023-09-18T02:43:55;18.90;99.90
3001;DHT22;1510;51.072;6.678;2023-09-18T02:46:22;18.90;99.90
3001;DHT22;1510;51.072;6.678;2023-09-18T02:48:50;18.90;99.90
3001;DHT22;1510;51.072;6.678;2023-09-18T02:51:17;18.90;99.90
3001;DHT22;1510;51.072;6.678;2023-09-18T02:53:44;18.90;99.90
3001;DHT22;1510;51.072;6.678;2023-09-18T02:56:11;18.90;99.90
3001;DHT22;1510;51.072;6.678;2023-09-18T02:58:37;18.90;99.90
3001;DHT22;1510;51.072;6.678;2023-09-18T03:01:06;18.80;99.90
3001;DHT22;1510;51.072;6.678;2023-09-18T03:03:34;18.80;99.90
3001;DHT22;1510;51.072;6.678;2023-09-18T03:06:03;18.80;99.90
3001;DHT22;1510;51.072;6.678;2023-09-18T03:08:30;18.80;99.90
3001;DHT22;1510;51.072;6.678;2023-09-18T03:10:57;18.90;99.90
3001;DHT22;1510;51.072;6.678;2023-09-18T03:13:26;18.90;99.90
3001;DHT22;1510;51.072;6.678;2023-09-18T03:15:53;18.90;99.90
3001;DHT22;1510;51.072;6.678;2023-09-18T03:18:20;18.90;99.90
3001;DHT22;1510;51.072;6.678;2023-09-18T03:20:47;19.00;99.90
3001;DHT22;1510;51.072;6.678;2023-09-18T03:23:16;19.00;99.90
3001;DHT22;1510;51.072;6.678;2023-09-18T03:25:43;19.00;99.90
3001;DHT22;1510;51.072;6.678;2023-09-18T03:28:10;19.00;99.90
3001;DHT22;1510;51.072;6.678;2023-09-18T03:30:36;18.90;99.90
3001;DHT22;1510;51.072;6.678;2023-09-18T03:33:03;18.90;99.90
3001;DHT22;1510;51.072;6.678;2023-09-18T03:35:31;18.90;99.90
3001;DHT22;1510;51.072;6.678;2023-09-18T03:37:58;18.80;99.90
3001;DHT22;1510;51.072;6.678;2023-09-18T03:40:27;18.90;99.90
3001;DHT22;1510;51.072;6.678;2023-09-18T03:42:54;18.90;99.90
3001;DHT22;1510;51.072;6.678;2023-09-18T03:45:20;19.00;99.90
3001;DHT22;1510;51.072;6.678;2023-09-18T03:47:47;19.00;99.90
3001;DHT22;1510;51.072;6.678;2023-09-18T03:50:15;19.00;99.90
3001;DHT22;1510;51.072;6.678;2023-09-18T03:52:42;19.00;99.90
3001;DHT22;1510;51.072;6.678;2023-09-18T03:55:09;19.10;99.90
3001;DHT22;1510;51.072;6.678;2023-09-18T03:57:38;19.10;99.90
3001;DHT22;1510;51.072;6.678;2023-09-18T04:00:06;19.10;99.90
3001;DHT22;1510;51.072;6.678;2023-09-18T04:02:33;19.20;99.90
3001;DHT22;1510;51.072;6.678;2023-09-18T04:05:01;19.30;99.90
3001;DHT22;1510;51.072;6.678;2023-09-18T04:07:28;19.20;99.90
3001;DHT22;1510;51.072;6.678;2023-09-18T04:09:56;19.20;99.90
3001;DHT22;1510;51.072;6.678;2023-09-18T04:12:23;19.30;99.90
3001;DHT22;1510;51.072;6.678;2023-09-18T04:14:51;19.20;99.90
3001;DHT22;1510;51.072;6.678;2023-09-18T04:17:18;19.10;99.90
3001;DHT22;1510;51.072;6.678;2023-09-18T04:19:46;19.10;99.90
3001;DHT22;1510;51.072;6.678;2023-09-18T04:22:13;19.10;99.90
3001;DHT22;1510;51.072;6.678;2023-09-18T04:24:40;19.00;99.90
3001;DHT22;1510;51.072;6.678;2023-09-18T04:27:07;18.90;99.90
3001;DHT22;1510;51.072;6.678;2023-09-18T04:29:34;18.80;99.90
3001;DHT22;1510;51.072;6.678;2023-09-18T04:32:04;18.80;99.90
3001;DHT22;1510;51.072;6.678;2023-09-18T04:34:31;18.70;99.90
3001;DHT22;1510;51.072;6.678;2023-09-18T04:37:00;18.70;99.90
3001;DHT22;1510;51.072;6.678;2023-09-18T04:39:29;18.60;99.90
3001;DHT22;1510;51.072;6.678;2023-09-18T04:41:56;18.50;99.90
3001;DHT22;1510;51.072;6.678;2023-09-18T04:44:23;18.50;99.90
3001;DHT22;1510;51.072;6.678;2023-09-18T04:46:50;18.60;99.90
3001;DHT22;1510;51.072;6.678;2023-09-18T04:49:18;18.60;99.90
3001;DHT22;1510;51.072;6.678;2023-09-18T04:51:45;18.50;99.90
3001;DHT22;1510;51.072;6.678;2023-09-18T04:54:12;18.60;99.90
3001;DHT22;1510;51.072;6.678;2023-09-18T04:56:41;18.50;99.90
3001;DHT22;1510;51.072;6.678;2023-09-18T04:59:07;18.50;99.90
3001;DHT22;1510;51.072;6.678;2023-09-18T05:01:34;18.50;99.90
3001;DHT22;1510;51.072;6.678;2023-09-18T05:04:01;18.60;99.90
3001;DHT22;1510;51.072;6.678;2023-09-18T05:06:29;18.60;99.90
3001;DHT22;1510;51.072;6.678;2023-09-18T05:08:56;18.70;99.90
3001;DHT22;1510;51.072;6.678;2023-09-18T05:11:23;18.60;99.90
3001;DHT22;1510;51.072;6.678;2023-09-18T05:13:50;18.60;99.90
3001;DHT22;1510;51.072;6.678;2023-09-18T05:16:18;18.50;99.90
3001;DHT22;1510;51.072;6.678;2023-09-18T05:18:45;18.40;99.90
3001;DHT22;1510;51.072;6.678;2023-09-18T05:21:12;18.40;99.90
3001;DHT22;1510;51.072;6.678;2023-09-18T05:23:40;18.40;99.90
3001;DHT22;1510;51.072;6.678;2023-09-18T05:26:07;18.40;99.90
3001;DHT22;1510;51.072;6.678;2023-09-18T05:28:33;18.40;99.90
3001;DHT22;1510;51.072;6.678;2023-09-18T05:31:01;18.40;99.90
3001;DHT22;1510;51.072;6.678;2023-09-18T05:33:28;18.30;99.90
3001;DHT22;1510;51.072;6.678;2023-09-18T05:35:54;18.40;99.90
3001;DHT22;1510;51.072;6.678;2023-09-18T05:38:21;18.40;99.90
3001;DHT22;1510;51.072;6.678;2023-09-18T05:40:49;18.40;99.90
3001;DHT22;1510;51.072;6.678;2023-09-18T05:43:16;18.50;99.90
3001;DHT22;1510;51.072;6.678;2023-09-18T05:45:43;18.50;99.90
3001;DHT22;1510;51.072;6.678;2023-09-18T05:48:10;18.60;99.90
3001;DHT22;1510;51.072;6.678;2023-09-18T05:50:38;18.70;99.90
3001;DHT22;1510;51.072;6.678;2023-09-18T05:53:06;18.80;99.90
3001;DHT22;1510;51.072;6.678;2023-09-18T05:55:34;18.90;99.90
3001;DHT22;1510;51.072;6.678;2023-09-18T05:58:03;19.00;99.90
3001;DHT22;1510;51.072;6.678;2023-09-18T06:00:32;19.10;99.90
3001;DHT22;1510;51.072;6.678;2023-09-18T06:02:59;19.20;99.90
3001;DHT22;1510;51.072;6.678;2023-09-18T06:05:26;19.30;99.90
3001;DHT22;1510;51.072;6.678;2023-09-18T06:07:53;19.30;99.90
3001;DHT22;1510;51.072;6.678;2023-09-18T06:10:20;19.30;99.90
3001;DHT22;1510;51.072;6.678;2023-09-18T06:12:47;19.30;99.90
3001;DHT22;1510;51.072;6.678;2023-09-18T06:15:15;19.40;99.90
3001;DHT22;1510;51.072;6.678;2023-09-18T06:17:43;19.40;99.90
3001;DHT22;1510;51.072;6.678;2023-09-18T06:20:12;19.40;99.90
3001;DHT22;1510;51.072;6.678;2023-09-18T06:22:40;19.40;99.90
3001;DHT22;1510;51.072;6.678;2023-09-18T06:25:08;19.40;99.90
3001;DHT22;1510;51.072;6.678;2023-09-18T06:27:36;19.50;99.90
3001;DHT22;1510;51.072;6.678;2023-09-18T06:30:03;19.60;99.90
3001;DHT22;1510;51.072;6.678;2023-09-18T06:32:31;19.60;99.90
3001;DHT22;1510;51.072;6.678;2023-09-18T06:34:58;19.60;99.90
3001;DHT22;1510;51.072;6.678;2023-09-18T06:37:25;19.70;99.90
3001;DHT22;1510;51.072;6.678;2023-09-18T06:39:52;19.70;99.90
3001;DHT22;1510;51.072;6.678;2023-09-18T06:42:19;19.80;99.90
3001;DHT22;1510;51.072;6.678;2023-09-18T06:44:46;19.70;99.90
3001;DHT22;1510;51.072;6.678;2023-09-18T06:47:12;19.80;99.90
3001;DHT22;1510;51.072;6.678;2023-09-18T06:49:41;19.80;99.90
3001;DHT22;1510;51.072;6.678;2023-09-18T06:52:08;19.90;99.90
3001;DHT22;1510;51.072;6.678;2023-09-18T06:54:35;20.00;99.90
3001;DHT22;1510;51.072;6.678;2023-09-18T06:57:03;20.00;99.90
3001;DHT22;1510;51.072;6.678;2023-09-18T06:59:30;20.00;99.90
3001;DHT22;1510;51.072;6.678;2023-09-18T07:01:59;20.10;99.90
3001;DHT22;1510;51.072;6.678;2023-09-18T07:04:26;20.20;99.90
3001;DHT22;1510;51.072;6.678;2023-09-18T07:06:54;20.20;99.90
3001;DHT22;1510;51.072;6.678;2023-09-18T07:09:22;20.20;99.90
3001;DHT22;1510;51.072;6.678;2023-09-18T07:11:51;20.30;99.90
3001;DHT22;1510;51.072;6.678;2023-09-18T07:14:18;20.30;99.90
3001;DHT22;1510;51.072;6.678;2023-09-18T07:16:45;20.40;99.90
3001;DHT22;1510;51.072;6.678;2023-09-18T07:19:11;20.50;99.90
3001;DHT22;1510;51.072;6.678;2023-09-18T07:21:42;20.60;99.90
3001;DHT22;1510;51.072;6.678;2023-09-18T07:24:11;20.70;99.90
3001;DHT22;1510;51.072;6.678;2023-09-18T07:26:44;20.80;99.90
3001;DHT22;1510;51.072;6.678;2023-09-18T07:29:11;20.90;99.90
3001;DHT22;1510;51.072;6.678;2023-09-18T07:31:38;20.90;99.90
3001;DHT22;1510;51.072;6.678;2023-09-18T07:34:05;20.90;99.90
3001;DHT22;1510;51.072;6.678;2023-09-18T07:36:32;20.90;99.90
3001;DHT22;1510;51.072;6.678;2023-09-18T07:38:59;21.00;99.90
3001;DHT22;1510;51.072;6.678;2023-09-18T07:41:27;21.00;99.90
3001;DHT22;1510;51.072;6.678;2023-09-18T07:43:54;21.10;99.90
3001;DHT22;1510;51.072;6.678;2023-09-18T07:46:22;21.10;99.90
3001;DHT22;1510;51.072;6.678;2023-09-18T07:48:49;21.20;99.90
3001;DHT22;1510;51.072;6.678;2023-09-18T07:51:16;21.30;99.90
3001;DHT22;1510;51.072;6.678;2023-09-18T07:53:43;21.40;99.90
3001;DHT22;1510;51.072;6.678;2023-09-18T07:56:10;21.50;99.90
3001;DHT22;1510;51.072;6.678;2023-09-18T07:58:38;21.50;99.90
3001;DHT22;1510;51.072;6.678;2023-09-18T08:01:05;21.40;99.90
3001;DHT22;1510;51.072;6.678;2023-09-18T08:03:34;21.30;99.90
3001;DHT22;1510;51.072;6.678;2023-09-18T08:06:01;21.40;99.90
3001;DHT22;1510;51.072;6.678;2023-09-18T08:08:30;21.40;99.90
3001;DHT22;1510;51.072;6.678;2023-09-18T08:11:00;21.40;99.90
3001;DHT22;1510;51.072;6.678;2023-09-18T08:13:28;21.50;99.90
3001;DHT22;1510;51.072;6.678;2023-09-18T08:15:57;21.60;99.90
3001;DHT22;1510;51.072;6.678;2023-09-18T08:18:23;21.70;99.90
3001;DHT22;1510;51.072;6.678;2023-09-18T08:20:52;21.70;99.90
3001;DHT22;1510;51.072;6.678;2023-09-18T08:23:19;21.90;99.90
3001;DHT22;1510;51.072;6.678;2023-09-18T08:25:46;22.00;99.90
3001;DHT22;1510;51.072;6.678;2023-09-18T08:28:14;22.10;99.90
3001;DHT22;1510;51.072;6.678;2023-09-18T08:30:41;21.90;99.90
3001;DHT22;1510;51.072;6.678;2023-09-18T08:33:14;21.90;99.90
3001;DHT22;1510;51.072;6.678;2023-09-18T08:35:40;21.80;99.90
3001;DHT22;1510;51.072;6.678;2023-09-18T08:38:07;21.70;99.90
3001;DHT22;1510;51.072;6.678;2023-09-18T08:40:34;21.70;99.90
3001;DHT22;1510;51.072;6.678;2023-09-18T08:43:02;21.70;99.90
3001;DHT22;1510;51.072;6.678;2023-09-18T08:45:35;21.80;99.90
3001;DHT22;1510;51.072;6.678;2023-09-18T08:48:05;21.80;99.90
3001;DHT22;1510;51.072;6.678;2023-09-18T08:50:33;21.80;99.90
3001;DHT22;1510;51.072;6.678;2023-09-18T08:53:01;22.00;99.90
3001;DHT22;1510;51.072;6.678;2023-09-18T08:55:28;22.20;99.90
3001;DHT22;1510;51.072;6.678;2023-09-18T08:57:56;22.30;99.90
3001;DHT22;1510;51.072;6.678;2023-09-18T09:00:25;22.20;99.90
3001;DHT22;1510;51.072;6.678;2023-09-18T09:02:52;22.50;99.90
3001;DHT22;1510;51.072;6.678;2023-09-18T09:05:20;22.70;99.90
3001;DHT22;1510;51.072;6.678;2023-09-18T09:07:48;23.00;99.90
3001;DHT22;1510;51.072;6.678;2023-09-18T09:10:15;23.30;99.90
3001;DHT22;1510;51.072;6.678;2023-09-18T09:12:51;23.40;99.90
3001;DHT22;1510;51.072;6.678;2023-09-18T09:15:20;23.50;99.90
3001;DHT22;1510;51.072;6.678;2023-09-18T09:17:47;23.50;99.70
3001;DHT22;1510;51.072;6.678;2023-09-18T09:20:15;23.50;99.90
3001;DHT22;1510;51.072;6.678;2023-09-18T09:22:42;23.60;97.20
3001;DHT22;1510;51.072;6.678;2023-09-18T09:25:26;23.60;96.60
3001;DHT22;1510;51.072;6.678;2023-09-18T09:27:54;23.80;96.70
3001;DHT22;1510;51.072;6.678;2023-09-18T09:30:22;23.80;96.70
3001;DHT22;1510;51.072;6.678;2023-09-18T09:32:50;24.00;96.80
3001;DHT22;1510;51.072;6.678;2023-09-18T09:35:25;24.00;96.80
3001;DHT22;1510;51.072;6.678;2023-09-18T09:37:58;23.70;96.60
3001;DHT22;1510;51.072;6.678;2023-09-18T09:40:29;23.50;96.60
3001;DHT22;1510;51.072;6.678;2023-09-18T09:42:57;23.40;96.50
3001;DHT22;1510;51.072;6.678;2023-09-18T09:45:27;23.40;96.50
3001;DHT22;1510;51.072;6.678;2023-09-18T09:47:57;23.70;96.70
3001;DHT22;1510;51.072;6.678;2023-09-18T09:50:24;24.10;96.80
3001;DHT22;1510;51.072;6.678;2023-09-18T09:52:53;24.30;94.30
3001;DHT22;1510;51.072;6.678;2023-09-18T09:55:23;24.10;93.40
3001;DHT22;1510;51.072;6.678;2023-09-18T09:57:53;23.90;93.30
3001;DHT22;1510;51.072;6.678;2023-09-18T10:00:23;24.00;94.90
3001;DHT22;1510;51.072;6.678;2023-09-18T10:03:04;24.30;92.50
3001;DHT22;1510;51.072;6.678;2023-09-18T10:05:32;24.40;93.50
3001;DHT22;1510;51.072;6.678;2023-09-18T10:08:04;24.20;90.80
3001;DHT22;1510;51.072;6.678;2023-09-18T10:10:36;24.30;90.00
3001;DHT22;1510;51.072;6.678;2023-09-18T10:13:09;24.60;90.10
3001;DHT22;1510;51.072;6.678;2023-09-18T10:15:37;25.00;90.20
3001;DHT22;1510;51.072;6.678;2023-09-18T10:18:07;25.40;77.80
3001;DHT22;1510;51.072;6.678;2023-09-18T10:20:40;26.00;67.90
3001;DHT22;1510;51.072;6.678;2023-09-18T10:23:23;26.50;67.40
3001;DHT22;1510;51.072;6.678;2023-09-18T10:25:55;26.90;63.70
3001;DHT22;1510;51.072;6.678;2023-09-18T10:28:31;26.60;59.10
3001;DHT22;1510;51.072;6.678;2023-09-18T10:31:00;26.40;58.90
3001;DHT22;1510;51.072;6.678;2023-09-18T10:33:30;26.20;64.10
3001;DHT22;1510;51.072;6.678;2023-09-18T10:35:57;26.40;58.90
3001;DHT22;1510;51.072;6.678;2023-09-18T10:38:27;26.50;59.80
3001;DHT22;1510;51.072;6.678;2023-09-18T10:40:56;26.30;58.80
3001;DHT22;1510;51.072;6.678;2023-09-18T10:43:24;26.20;58.30
3001;DHT22;1510;51.072;6.678;2023-09-18T10:45:52;26.30;58.80
3001;DHT22;1510;51.072;6.678;2023-09-18T10:48:20;26.70;59.10
3001;DHT22;1510;51.072;6.678;2023-09-18T10:50:49;26.50;56.80
3001;DHT22;1510;51.072;6.678;2023-09-18T10:53:18;26.90;50.40
3001;DHT22;1510;51.072;6.678;2023-09-18T10:55:45;26.80;50.30
3001;DHT22;1510;51.072;6.678;2023-09-18T10:58:12;27.50;50.80
3001;DHT22;1510;51.072;6.678;2023-09-18T11:00:49;27.50;41.70
3001;DHT22;1510;51.072;6.678;2023-09-18T11:03:18;27.70;41.90
3001;DHT22;1510;51.072;6.678;2023-09-18T11:06:02;27.50;41.70
3001;DHT22;1510;51.072;6.678;2023-09-18T11:08:32;27.40;41.70
3001;DHT22;1510;51.072;6.678;2023-09-18T11:11:05;27.50;41.70
3001;DHT22;1510;51.072;6.678;2023-09-18T11:13:39;28.30;42.30
3001;DHT22;1510;51.072;6.678;2023-09-18T11:16:33;29.20;32.60
3001;DHT22;1510;51.072;6.678;2023-09-18T11:19:11;28.40;33.10
3001;DHT22;1510;51.072;6.678;2023-09-18T11:21:39;26.90;32.10
3001;DHT22;1510;51.072;6.678;2023-09-18T11:24:07;26.40;41.00
3001;DHT22;1510;51.072;6.678;2023-09-18T11:26:39;26.10;40.70
3001;DHT22;1510;51.072;6.678;2023-09-18T11:29:07;26.60;41.10
3001;DHT22;1510;51.072;6.678;2023-09-18T11:31:44;26.90;32.00
3001;DHT22;1510;51.072;6.678;2023-09-18T11:34:19;27.30;29.40
3001;DHT22;1510;51.072;6.678;2023-09-18T11:36:46;27.50;29.90
3001;DHT22;1510;51.072;6.678;2023-09-18T11:39:13;28.80;25.40
3001;DHT22;1510;51.072;6.678;2023-09-18T11:42:07;29.30;18.20
3001;DHT22;1510;51.072;6.678;2023-09-18T11:44:34;29.70;18.40
3001;DHT22;1510;51.072;6.678;2023-09-18T11:47:07;30.20;13.30
3001;DHT22;1510;51.072;6.678;2023-09-18T11:49:40;30.00;10.90
3001;DHT22;1510;51.072;6.678;2023-09-18T11:52:09;30.60;5.40
3001;DHT22;1510;51.072;6.678;2023-09-18T11:54:39;29.60;7.40
3001;DHT22;1510;51.072;6.678;2023-09-18T11:57:06;29.40;6.20
3001;DHT22;1510;51.072;6.678;2023-09-18T11:59:38;28.60;10.10
3001;DHT22;1510;51.072;6.678;2023-09-18T12:02:06;28.30;11.80
3001;DHT22;1510;51.072;6.678;2023-09-18T12:04:34;28.00;9.80
3001;DHT22;1510;51.072;6.678;2023-09-18T12:07:03;27.40;17.00
3001;DHT22;1510;51.072;6.678;2023-09-18T12:09:30;28.60;17.70
3001;DHT22;1510;51.072;6.678;2023-09-18T12:11:58;29.00;10.30
3001;DHT22;1510;51.072;6.678;2023-09-18T12:14:30;28.80;10.20
3001;DHT22;1510;51.072;6.678;2023-09-18T12:16:57;28.80;10.20
3001;DHT22;1510;51.072;6.678;2023-09-18T12:19:25;28.80;10.00
3001;DHT22;1510;51.072;6.678;2023-09-18T12:21:52;28.20;9.90
3001;DHT22;1510;51.072;6.678;2023-09-18T12:24:22;27.50;9.50
3001;DHT22;1510;51.072;6.678;2023-09-18T12:26:50;27.50;14.70
3001;DHT22;1510;51.072;6.678;2023-09-18T12:29:17;27.10;16.90
3001;DHT22;1510;51.072;6.678;2023-09-18T12:31:44;26.60;16.60
3001;DHT22;1510;51.072;6.678;2023-09-18T12:34:14;26.80;16.70
3001;DHT22;1510;51.072;6.678;2023-09-18T12:36:42;27.00;16.80
3001;DHT22;1510;51.072;6.678;2023-09-18T12:39:09;27.60;9.50
3001;DHT22;1510;51.072;6.678;2023-09-18T12:41:39;27.80;9.70
3001;DHT22;1510;51.072;6.678;2023-09-18T12:44:06;27.70;9.30
3001;DHT22;1510;51.072;6.678;2023-09-18T12:46:34;29.00;10.30
3001;DHT22;1510;51.072;6.678;2023-09-18T12:49:15;29.50;2.70
3001;DHT22;1510;51.072;6.678;2023-09-18T12:51:42;28.70;2.30
3001;DHT22;1510;51.072;6.678;2023-09-18T12:54:12;27.80;9.00
3001;DHT22;1510;51.072;6.678;2023-09-18T12:56:43;27.50;9.50
3001;DHT22;1510;51.072;6.678;2023-09-18T12:59:10;27.60;9.50
3001;DHT22;1510;51.072;6.678;2023-09-18T13:01:38;28.20;9.90
3001;DHT22;1510;51.072;6.678;2023-09-18T13:04:05;28.80;8.10
3001;DHT22;1510;51.072;6.678;2023-09-18T13:06:32;29.90;2.90
3001;DHT22;1510;51.072;6.678;2023-09-18T13:09:17;30.40;1.00
3001;DHT22;1510;51.072;6.678;2023-09-18T13:11:56;30.50;1.00
3001;DHT22;1510;51.072;6.678;2023-09-18T13:14:23;29.00;1.00
3001;DHT22;1510;51.072;6.678;2023-09-18T13:16:50;28.70;1.00
3001;DHT22;1510;51.072;6.678;2023-09-18T13:19:17;29.10;1.00
3001;DHT22;1510;51.072;6.678;2023-09-18T13:21:48;29.50;1.00
3001;DHT22;1510;51.072;6.678;2023-09-18T13:24:25;30.90;1.00
3001;DHT22;1510;51.072;6.678;2023-09-18T13:26:53;30.70;1.00
3001;DHT22;1510;51.072;6.678;2023-09-18T13:29:22;31.70;1.00
3001;DHT22;1510;51.072;6.678;2023-09-18T13:31:50;31.60;1.00
3001;DHT22;1510;51.072;6.678;2023-09-18T13:34:17;30.70;1.00
3001;DHT22;1510;51.072;6.678;2023-09-18T13:36:44;30.20;1.00
3001;DHT22;1510;51.072;6.678;2023-09-18T13:39:11;30.70;1.00
3001;DHT22;1510;51.072;6.678;2023-09-18T13:41:39;31.10;1.00
3001;DHT22;1510;51.072;6.678;2023-09-18T13:44:06;31.40;1.00
3001;DHT22;1510;51.072;6.678;2023-09-18T13:46:35;31.00;1.00
3001;DHT22;1510;51.072;6.678;2023-09-18T13:49:02;31.00;1.00
3001;DHT22;1510;51.072;6.678;2023-09-18T13:51:30;31.40;1.00
3001;DHT22;1510;51.072;6.678;2023-09-18T13:53:57;32.40;1.00
3001;DHT22;1510;51.072;6.678;2023-09-18T13:56:24;33.30;1.00
3001;DHT22;1510;51.072;6.678;2023-09-18T13:58:54;33.60;1.00
3001;DHT22;1510;51.072;6.678;2023-09-18T14:01:21;32.50;1.00
3001;DHT22;1510;51.072;6.678;2023-09-18T14:03:50;31.60;1.00
3001;DHT22;1510;51.072;6.678;2023-09-18T14:06:17;31.60;1.00
3001;DHT22;1510;51.072;6.678;2023-09-18T14:08:44;31.60;1.00
3001;DHT22;1510;51.072;6.678;2023-09-18T14:11:11;31.70;1.00
3001;DHT22;1510;51.072;6.678;2023-09-18T14:13:38;31.80;1.00
3001;DHT22;1510;51.072;6.678;2023-09-18T14:16:04;32.00;1.00
3001;DHT22;1510;51.072;6.678;2023-09-18T14:18:31;31.90;1.00
3001;DHT22;1510;51.072;6.678;2023-09-18T14:21:00;31.50;1.00
3001;DHT22;1510;51.072;6.678;2023-09-18T14:23:27;31.10;1.00
3001;DHT22;1510;51.072;6.678;2023-09-18T14:25:54;30.90;1.00
3001;DHT22;1510;51.072;6.678;2023-09-18T14:28:21;31.10;1.00
3001;DHT22;1510;51.072;6.678;2023-09-18T14:30:49;31.30;1.00
3001;DHT22;1510;51.072;6.678;2023-09-18T14:33:17;31.60;1.00
3001;DHT22;1510;51.072;6.678;2023-09-18T14:35:43;31.30;1.00
3001;DHT22;1510;51.072;6.678;2023-09-18T14:38:12;31.70;1.00
3001;DHT22;1510;51.072;6.678;2023-09-18T14:40:41;30.70;1.00
3001;DHT22;1510;51.072;6.678;2023-09-18T14:43:08;30.70;1.00
3001;DHT22;1510;51.072;6.678;2023-09-18T14:45:35;30.60;1.00
3001;DHT22;1510;51.072;6.678;2023-09-18T14:48:04;30.50;1.00
3001;DHT22;1510;51.072;6.678;2023-09-18T14:50:31;30.70;1.00
3001;DHT22;1510;51.072;6.678;2023-09-18T14:52:58;30.40;1.00
3001;DHT22;1510;51.072;6.678;2023-09-18T14:55:26;29.10;1.00
3001;DHT22;1510;51.072;6.678;2023-09-18T14:57:53;28.10;1.00
3001;DHT22;1510;51.072;6.678;2023-09-18T15:00:20;28.30;1.00
3001;DHT22;1510;51.072;6.678;2023-09-18T15:02:47;28.70;1.00
3001;DHT22;1510;51.072;6.678;2023-09-18T15:05:14;29.30;1.00
3001;DHT22;1510;51.072;6.678;2023-09-18T15:07:43;29.80;1.00
3001;DHT22;1510;51.072;6.678;2023-09-18T15:10:10;29.90;1.00
3001;DHT22;1510;51.072;6.678;2023-09-18T15:12:38;30.40;1.00
3001;DHT22;1510;51.072;6.678;2023-09-18T15:15:06;30.90;1.00
3001;DHT22;1510;51.072;6.678;2023-09-18T15:17:33;31.40;1.00
3001;DHT22;1510;51.072;6.678;2023-09-18T15:20:00;30.80;1.00
3001;DHT22;1510;51.072;6.678;2023-09-18T15:22:27;30.60;1.00
3001;DHT22;1510;51.072;6.678;2023-09-18T15:24:54;30.30;1.00
3001;DHT22;1510;51.072;6.678;2023-09-18T15:27:21;30.10;1.00
3001;DHT22;1510;51.072;6.678;2023-09-18T15:29:49;30.00;1.00
3001;DHT22;1510;51.072;6.678;2023-09-18T15:32:47;29.90;1.00
3001;DHT22;1510;51.072;6.678;2023-09-18T15:35:16;29.60;1.00
3001;DHT22;1510;51.072;6.678;2023-09-18T15:37:43;28.60;1.00
3001;DHT22;1510;51.072;6.678;2023-09-18T15:40:10;28.20;1.00
3001;DHT22;1510;51.072;6.678;2023-09-18T15:42:38;28.20;1.00
3001;DHT22;1510;51.072;6.678;2023-09-18T15:45:08;28.20;1.00
3001;DHT22;1510;51.072;6.678;2023-09-18T15:47:36;28.20;1.00
3001;DHT22;1510;51.072;6.678;2023-09-18T15:50:04;27.40;1.00
3001;DHT22;1510;51.072;6.678;2023-09-18T15:52:31;28.00;1.00
3001;DHT22;1510;51.072;6.678;2023-09-18T15:54:58;28.00;1.00
3001;DHT22;1510;51.072;6.678;2023-09-18T15:57:25;27.60;1.00
3001;DHT22;1510;51.072;6.678;2023-09-18T15:59:52;27.00;1.00
3001;DHT22;1510;51.072;6.678;2023-09-18T16:02:23;26.60;1.00
3001;DHT22;1510;51.072;6.678;2023-09-18T16:04:50;27.00;1.00
3001;DHT22;1510;51.072;6.678;2023-09-18T16:07:18;27.10;1.00
3001;DHT22;1510;51.072;6.678;2023-09-18T16:09:45;27.50;1.00
3001;DHT22;1510;51.072;6.678;2023-09-18T16:12:12;27.40;1.00